sensor_id;sensor_type;location;lat;lon;timestamp;temperature;humidity
21445;DHT22;10883;51.946;20.140;2023-03-11T00:01:25;7.00;99.90
21445;DHT22;10883;51.946;20.140;2023-03-11T00:03:51;6.90;99.90
21445;DHT22;10883;51.946;20.140;2023-03-11T00:06:17;6.80;99.90
21445;DHT22;10883;51.946;20.140;2023-03-11T00:08:42;6.70;99.90
21445;DHT22;10883;51.946;20.140;2023-03-11T00:11:08;6.70;99.90
21445;DHT22;10883;51.946;20.140;2023-03-11T00:13:34;6.50;99.90
21445;DHT22;10883;51.946;20.140;2023-03-11T00:16:01;6.50;99.90
21445;DHT22;10883;51.946;20.140;2023-03-11T00:18:28;6.40;99.90
21445;DHT22;10883;51.946;20.140;2023-03-11T00:20:57;6.30;99.90
21445;DHT22;10883;51.946;20.140;2023-03-11T00:23:24;6.30;99.90
21445;DHT22;10883;51.946;20.140;2023-03-11T00:25:51;6.30;99.90
21445;DHT22;10883;51.946;20.140;2023-03-11T00:28:17;6.30;99.90
21445;DHT22;10883;51.946;20.140;2023-03-11T00:30:43;6.30;99.90
21445;DHT22;10883;51.946;20.140;2023-03-11T00:33:12;6.20;99.90
21445;DHT22;10883;51.946;20.140;2023-03-11T00:35:38;6.10;99.90
21445;DHT22;10883;51.946;20.140;2023-03-11T00:38:07;6.10;99.90
21445;DHT22;10883;51.946;20.140;2023-03-11T00:40:34;6.10;99.90
21445;DHT22;10883;51.946;20.140;2023-03-11T00:43:00;6.00;99.90
21445;DHT22;10883;51.946;20.140;2023-03-11T00:45:27;6.00;99.90
21445;DHT22;10883;51.946;20.140;2023-03-11T00:47:53;5.90;99.90
21445;DHT22;10883;51.946;20.140;2023-03-11T00:50:22;5.90;99.90
21445;DHT22;10883;51.946;20.140;2023-03-11T00:52:49;5.90;99.90
21445;DHT22;10883;51.946;20.140;2023-03-11T00:55:18;5.90;99.90
21445;DHT22;10883;51.946;20.140;2023-03-11T00:57:45;5.80;99.90
21445;DHT22;10883;51.946;20.140;2023-03-11T01:00:15;5.80;99.90
21445;DHT22;10883;51.946;20.140;2023-03-11T01:02:42;5.80;99.90
21445;DHT22;10883;51.946;20.140;2023-03-11T01:05:08;5.80;99.90
21445;DHT22;10883;51.946;20.140;2023-03-11T01:07:34;5.80;99.90
21445;DHT22;10883;51.946;20.140;2023-03-11T01:10:01;5.80;99.90
21445;DHT22;10883;51.946;20.140;2023-03-11T01:12:27;5.70;99.90
21445;DHT22;10883;51.946;20.140;2023-03-11T01:14:53;5.70;99.90
21445;DHT22;10883;51.946;20.140;2023-03-11T01:17:18;5.80;99.90
21445;DHT22;10883;51.946;20.140;2023-03-11T01:19:47;5.80;99.90
21445;DHT22;10883;51.946;20.140;2023-03-11T01:22:13;5.80;99.90
21445;DHT22;10883;51.946;20.140;2023-03-11T01:24:39;5.80;99.90
21445;DHT22;10883;51.946;20.140;2023-03-11T01:27:04;5.80;99.90
21445;DHT22;10883;51.946;20.140;2023-03-11T01:29:30;5.70;99.90
21445;DHT22;10883;51.946;20.140;2023-03-11T01:31:56;5.70;99.90
21445;DHT22;10883;51.946;20.140;2023-03-11T01:34:24;5.60;99.90
21445;DHT22;10883;51.946;20.140;2023-03-11T01:36:50;5.60;99.90
21445;DHT22;10883;51.946;20.140;2023-03-11T01:39:15;5.60;99.90
21445;DHT22;10883;51.946;20.140;2023-03-11T01:41:41;5.50;99.90
21445;DHT22;10883;51.946;20.140;2023-03-11T01:44:10;5.50;99.90
21445;DHT22;10883;51.946;20.140;2023-03-11T01:49:24;5.50;99.90
21445;DHT22;10883;51.946;20.140;2023-03-11T01:51:53;5.40;99.90
21445;DHT22;10883;51.946;20.140;2023-03-11T01:54:25;5.30;99.90
21445;DHT22;10883;51.946;20.140;2023-03-11T01:56:53;5.40;99.90
21445;DHT22;10883;51.946;20.140;2023-03-11T01:59:30;5.40;99.90
21445;DHT22;10883;51.946;20.140;2023-03-11T02:02:26;5.40;99.90
21445;DHT22;10883;51.946;20.140;2023-03-11T02:04:53;5.40;99.90
21445;DHT22;10883;51.946;20.140;2023-03-11T02:07:19;5.50;99.90
21445;DHT22;10883;51.946;20.140;2023-03-11T02:09:45;5.50;99.90
21445;DHT22;10883;51.946;20.140;2023-03-11T02:12:12;5.60;99.90
21445;DHT22;10883;51.946;20.140;2023-03-11T02:14:44;5.70;99.90
21445;DHT22;10883;51.946;20.140;2023-03-11T02:17:12;5.80;99.90
21445;DHT22;10883;51.946;20.140;2023-03-11T02:20:18;5.90;99.90
21445;DHT22;10883;51.946;20.140;2023-03-11T02:22:46;5.90;99.90
21445;DHT22;10883;51.946;20.140;2023-03-11T02:27:40;6.00;99.90
21445;DHT22;10883;51.946;20.140;2023-03-11T02:30:10;6.10;99.90
21445;DHT22;10883;51.946;20.140;2023-03-11T02:32:36;6.10;99.90
21445;DHT22;10883;51.946;20.140;2023-03-11T02:35:03;6.10;99.90
21445;DHT22;10883;51.946;20.140;2023-03-11T02:37:29;6.20;99.90
21445;DHT22;10883;51.946;20.140;2023-03-11T02:42:59;6.20;99.90
21445;DHT22;10883;51.946;20.140;2023-03-11T02:45:26;6.20;99.90
21445;DHT22;10883;51.946;20.140;2023-03-11T02:47:55;6.20;99.90
21445;DHT22;10883;51.946;20.140;2023-03-11T02:50:21;6.20;99.90
21445;DHT22;10883;51.946;20.140;2023-03-11T02:52:50;6.20;99.90
21445;DHT22;10883;51.946;20.140;2023-03-11T02:55:16;6.30;99.90
21445;DHT22;10883;51.946;20.140;2023-03-11T02:57:45;6.30;99.90
21445;DHT22;10883;51.946;20.140;2023-03-11T03:00:12;6.30;99.90
21445;DHT22;10883;51.946;20.140;2023-03-11T03:02:42;6.30;99.90
21445;DHT22;10883;51.946;20.140;2023-03-11T03:05:09;6.30;99.90
21445;DHT22;10883;51.946;20.140;2023-03-11T03:07:35;6.40;99.90
21445;DHT22;10883;51.946;20.140;2023-03-11T03:10:02;6.40;99.90
21445;DHT22;10883;51.946;20.140;2023-03-11T03:12:28;6.40;99.90
21445;DHT22;10883;51.946;20.140;2023-03-11T03:14:54;6.40;99.90
21445;DHT22;10883;51.946;20.140;2023-03-11T03:17:19;6.50;99.90
21445;DHT22;10883;51.946;20.140;2023-03-11T03:19:45;6.40;99.90
21445;DHT22;10883;51.946;20.140;2023-03-11T03:22:11;6.50;99.90
21445;DHT22;10883;51.946;20.140;2023-03-11T03:24:37;6.50;99.90
21445;DHT22;10883;51.946;20.140;2023-03-11T03:27:03;6.50;99.90
21445;DHT22;10883;51.946;20.140;2023-03-11T03:29:29;6.50;99.90
21445;DHT22;10883;51.946;20.140;2023-03-11T03:31:55;6.40;99.90
21445;DHT22;10883;51.946;20.140;2023-03-11T03:34:21;6.50;99.90
21445;DHT22;10883;51.946;20.140;2023-03-11T03:36:46;6.50;99.90
21445;DHT22;10883;51.946;20.140;2023-03-11T03:39:12;6.50;99.90
21445;DHT22;10883;51.946;20.140;2023-03-11T03:41:38;6.50;99.90
21445;DHT22;10883;51.946;20.140;2023-03-11T03:44:04;6.50;99.90
21445;DHT22;10883;51.946;20.140;2023-03-11T03:46:30;6.50;99.90
21445;DHT22;10883;51.946;20.140;2023-03-11T03:48:55;6.50;99.90
21445;DHT22;10883;51.946;20.140;2023-03-11T03:51:21;6.50;99.90
21445;DHT22;10883;51.946;20.140;2023-03-11T03:53:47;6.50;99.90
21445;DHT22;10883;51.946;20.140;2023-03-11T03:56:17;6.50;99.90
21445;DHT22;10883;51.946;20.140;2023-03-11T03:58:43;6.50;99.90
21445;DHT22;10883;51.946;20.140;2023-03-11T04:01:10;6.50;99.90
21445;DHT22;10883;51.946;20.140;2023-03-11T04:03:36;6.60;99.90
21445;DHT22;10883;51.946;20.140;2023-03-11T04:08:32;6.60;99.90
21445;DHT22;10883;51.946;20.140;2023-03-11T04:10:58;6.70;99.90
21445;DHT22;10883;51.946;20.140;2023-03-11T04:13:23;6.70;99.90
21445;DHT22;10883;51.946;20.140;2023-03-11T04:15:49;6.70;99.90
21445;DHT22;10883;51.946;20.140;2023-03-11T04:18:15;6.70;99.90
21445;DHT22;10883;51.946;20.140;2023-03-11T04:20:41;6.70;99.90
21445;DHT22;10883;51.946;20.140;2023-03-11T04:23:07;6.70;99.90
21445;DHT22;10883;51.946;20.140;2023-03-11T04:25:32;6.70;99.90
21445;DHT22;10883;51.946;20.140;2023-03-11T04:27:59;6.70;99.90
21445;DHT22;10883;51.946;20.140;2023-03-11T04:30:25;6.70;99.90
21445;DHT22;10883;51.946;20.140;2023-03-11T04:32:51;6.70;99.90
21445;DHT22;10883;51.946;20.140;2023-03-11T04:35:17;6.70;99.90
21445;DHT22;10883;51.946;20.140;2023-03-11T04:37:42;6.80;99.90
21445;DHT22;10883;51.946;20.140;2023-03-11T04:40:08;6.80;99.90
21445;DHT22;10883;51.946;20.140;2023-03-11T04:42:35;6.80;99.90
21445;DHT22;10883;51.946;20.140;2023-03-11T04:45:01;6.80;99.90
21445;DHT22;10883;51.946;20.140;2023-03-11T04:47:28;6.70;99.90
21445;DHT22;10883;51.946;20.140;2023-03-11T04:49:54;6.70;99.90
21445;DHT22;10883;51.946;20.140;2023-03-11T04:52:21;6.70;99.90
21445;DHT22;10883;51.946;20.140;2023-03-11T04:54:46;6.70;99.90
21445;DHT22;10883;51.946;20.140;2023-03-11T04:57:12;6.70;99.90
21445;DHT22;10883;51.946;20.140;2023-03-11T04:59:38;6.70;99.90
21445;DHT22;10883;51.946;20.140;2023-03-11T05:02:04;6.70;99.90
21445;DHT22;10883;51.946;20.140;2023-03-11T05:04:30;6.70;99.90
21445;DHT22;10883;51.946;20.140;2023-03-11T05:06:56;6.80;99.90
21445;DHT22;10883;51.946;20.140;2023-03-11T05:09:22;6.70;99.90
21445;DHT22;10883;51.946;20.140;2023-03-11T05:11:47;6.70;99.90
21445;DHT22;10883;51.946;20.140;2023-03-11T05:14:13;6.70;99.90
21445;DHT22;10883;51.946;20.140;2023-03-11T05:16:39;6.80;99.90
21445;DHT22;10883;51.946;20.140;2023-03-11T05:19:05;6.70;99.90
21445;DHT22;10883;51.946;20.140;2023-03-11T05:21:50;6.80;99.90
21445;DHT22;10883;51.946;20.140;2023-03-11T05:24:16;6.80;99.90
21445;DHT22;10883;51.946;20.140;2023-03-11T05:26:42;6.80;99.90
21445;DHT22;10883;51.946;20.140;2023-03-11T05:29:08;6.80;99.90
21445;DHT22;10883;51.946;20.140;2023-03-11T05:31:33;6.80;99.90
21445;DHT22;10883;51.946;20.140;2023-03-11T05:33:59;6.70;99.90
21445;DHT22;10883;51.946;20.140;2023-03-11T05:36:25;6.70;99.90
21445;DHT22;10883;51.946;20.140;2023-03-11T05:38:51;6.80;99.90
21445;DHT22;10883;51.946;20.140;2023-03-11T05:41:18;6.80;99.90
21445;DHT22;10883;51.946;20.140;2023-03-11T05:43:44;6.80;99.90
21445;DHT22;10883;51.946;20.140;2023-03-11T05:46:11;6.80;99.90
21445;DHT22;10883;51.946;20.140;2023-03-11T05:48:37;6.80;99.90
21445;DHT22;10883;51.946;20.140;2023-03-11T05:51:10;6.90;99.90
21445;DHT22;10883;51.946;20.140;2023-03-11T05:53:40;6.90;99.90
21445;DHT22;10883;51.946;20.140;2023-03-11T05:56:14;6.90;99.90
21445;DHT22;10883;51.946;20.140;2023-03-11T05:58:42;6.90;99.90
21445;DHT22;10883;51.946;20.140;2023-03-11T06:01:14;6.90;99.90
21445;DHT22;10883;51.946;20.140;2023-03-11T06:03:44;7.00;99.90
21445;DHT22;10883;51.946;20.140;2023-03-11T06:06:11;7.00;99.90
21445;DHT22;10883;51.946;20.140;2023-03-11T06:08:37;7.00;99.90
21445;DHT22;10883;51.946;20.140;2023-03-11T06:11:08;7.10;99.90
21445;DHT22;10883;51.946;20.140;2023-03-11T06:13:36;7.10;99.90
21445;DHT22;10883;51.946;20.140;2023-03-11T06:16:02;7.10;99.90
21445;DHT22;10883;51.946;20.140;2023-03-11T06:18:28;7.00;99.90
21445;DHT22;10883;51.946;20.140;2023-03-11T06:20:59;7.00;99.90
21445;DHT22;10883;51.946;20.140;2023-03-11T06:23:29;7.00;99.90
21445;DHT22;10883;51.946;20.140;2023-03-11T06:26:05;7.00;99.90
21445;DHT22;10883;51.946;20.140;2023-03-11T06:28:31;7.00;99.90
21445;DHT22;10883;51.946;20.140;2023-03-11T06:31:09;7.00;99.90
21445;DHT22;10883;51.946;20.140;2023-03-11T06:33:36;7.00;99.90
21445;DHT22;10883;51.946;20.140;2023-03-11T06:36:04;7.00;99.90
21445;DHT22;10883;51.946;20.140;2023-03-11T06:38:30;7.00;99.90
21445;DHT22;10883;51.946;20.140;2023-03-11T06:41:01;7.10;99.90
21445;DHT22;10883;51.946;20.140;2023-03-11T06:43:28;7.00;99.90
21445;DHT22;10883;51.946;20.140;2023-03-11T06:45:56;7.10;99.90
21445;DHT22;10883;51.946;20.140;2023-03-11T06:48:22;7.10;99.90
21445;DHT22;10883;51.946;20.140;2023-03-11T06:50:55;7.10;99.90
21445;DHT22;10883;51.946;20.140;2023-03-11T06:53:22;7.10;99.90
21445;DHT22;10883;51.946;20.140;2023-03-11T06:58:30;7.10;99.90
21445;DHT22;10883;51.946;20.140;2023-03-11T07:01:05;7.00;99.90
21445;DHT22;10883;51.946;20.140;2023-03-11T07:03:31;6.90;99.90
21445;DHT22;10883;51.946;20.140;2023-03-11T07:05:57;6.80;99.90
21445;DHT22;10883;51.946;20.140;2023-03-11T07:08:24;6.80;99.90
21445;DHT22;10883;51.946;20.140;2023-03-11T07:11:04;6.80;99.90
21445;DHT22;10883;51.946;20.140;2023-03-11T07:13:31;6.70;99.90
21445;DHT22;10883;51.946;20.140;2023-03-11T07:18:29;6.70;99.90
21445;DHT22;10883;51.946;20.140;2023-03-11T07:20:55;6.70;99.90
21445;DHT22;10883;51.946;20.140;2023-03-11T07:23:21;6.70;99.90
21445;DHT22;10883;51.946;20.140;2023-03-11T07:25:47;6.80;99.90
21445;DHT22;10883;51.946;20.140;2023-03-11T07:28:13;6.80;99.90
21445;DHT22;10883;51.946;20.140;2023-03-11T07:30:40;6.70;99.90
21445;DHT22;10883;51.946;20.140;2023-03-11T07:33:06;6.80;99.90
21445;DHT22;10883;51.946;20.140;2023-03-11T07:35:33;6.80;99.90
21445;DHT22;10883;51.946;20.140;2023-03-11T07:37:59;6.80;99.90
21445;DHT22;10883;51.946;20.140;2023-03-11T07:40:25;6.80;99.90
21445;DHT22;10883;51.946;20.140;2023-03-11T07:42:51;6.80;99.90
21445;DHT22;10883;51.946;20.140;2023-03-11T07:45:17;6.80;99.90
21445;DHT22;10883;51.946;20.140;2023-03-11T07:47:43;6.80;99.90
21445;DHT22;10883;51.946;20.140;2023-03-11T07:50:10;6.80;99.90
21445;DHT22;10883;51.946;20.140;2023-03-11T07:52:36;6.80;99.90
21445;DHT22;10883;51.946;20.140;2023-03-11T07:55:02;6.70;99.90
21445;DHT22;10883;51.946;20.140;2023-03-11T07:57:28;6.70;99.90
21445;DHT22;10883;51.946;20.140;2023-03-11T07:59:54;6.80;99.90
21445;DHT22;10883;51.946;20.140;2023-03-11T08:02:21;6.80;99.90
21445;DHT22;10883;51.946;20.140;2023-03-11T08:04:47;6.90;99.90
21445;DHT22;10883;51.946;20.140;2023-03-11T08:07:13;7.00;99.90
21445;DHT22;10883;51.946;20.140;2023-03-11T08:09:39;7.10;99.90
21445;DHT22;10883;51.946;20.140;2023-03-11T08:12:05;7.20;99.90
21445;DHT22;10883;51.946;20.140;2023-03-11T08:14:31;7.20;99.90
21445;DHT22;10883;51.946;20.140;2023-03-11T08:16:57;7.30;99.90
21445;DHT22;10883;51.946;20.140;2023-03-11T08:19:23;7.20;99.90
21445;DHT22;10883;51.946;20.140;2023-03-11T08:21:49;7.20;99.90
21445;DHT22;10883;51.946;20.140;2023-03-11T08:24:15;7.10;99.90
21445;DHT22;10883;51.946;20.140;2023-03-11T08:26:41;6.90;99.90
21445;DHT22;10883;51.946;20.140;2023-03-11T08:29:06;6.70;99.90
21445;DHT22;10883;51.946;20.140;2023-03-11T08:31:33;6.60;99.90
21445;DHT22;10883;51.946;20.140;2023-03-11T08:34:07;6.40;99.90
21445;DHT22;10883;51.946;20.140;2023-03-11T08:36:33;6.20;99.90
21445;DHT22;10883;51.946;20.140;2023-03-11T08:38:59;6.20;99.90
21445;DHT22;10883;51.946;20.140;2023-03-11T08:41:26;6.10;99.90
21445;DHT22;10883;51.946;20.140;2023-03-11T08:43:52;6.00;99.90
21445;DHT22;10883;51.946;20.140;2023-03-11T08:46:30;5.90;99.90
21445;DHT22;10883;51.946;20.140;2023-03-11T08:48:56;5.80;99.90
21445;DHT22;10883;51.946;20.140;2023-03-11T08:51:23;5.60;99.90
21445;DHT22;10883;51.946;20.140;2023-03-11T08:53:50;5.40;99.90
21445;DHT22;10883;51.946;20.140;2023-03-11T08:56:16;5.30;99.90
21445;DHT22;10883;51.946;20.140;2023-03-11T08:58:43;5.20;99.90
21445;DHT22;10883;51.946;20.140;2023-03-11T09:01:10;5.20;99.90
21445;DHT22;10883;51.946;20.140;2023-03-11T09:04:05;5.20;99.90
21445;DHT22;10883;51.946;20.140;2023-03-11T09:07:32;5.20;99.90
21445;DHT22;10883;51.946;20.140;2023-03-11T09:10:53;5.10;99.90
21445;DHT22;10883;51.946;20.140;2023-03-11T09:21:43;5.00;99.90
21445;DHT22;10883;51.946;20.140;2023-03-11T09:24:12;4.90;99.90
21445;DHT22;10883;51.946;20.140;2023-03-11T09:26:38;4.90;99.90
21445;DHT22;10883;51.946;20.140;2023-03-11T09:29:05;4.80;99.90
21445;DHT22;10883;51.946;20.140;2023-03-11T09:31:32;4.80;99.90
21445;DHT22;10883;51.946;20.140;2023-03-11T09:33:58;4.70;99.90
21445;DHT22;10883;51.946;20.140;2023-03-11T09:36:24;4.60;99.90
21445;DHT22;10883;51.946;20.140;2023-03-11T09:38:50;4.40;99.90
21445;DHT22;10883;51.946;20.140;2023-03-11T09:43:54;4.10;99.90
21445;DHT22;10883;51.946;20.140;2023-03-11T09:54:58;3.90;99.90
21445;DHT22;10883;51.946;20.140;2023-03-11T09:57:33;3.80;99.90
21445;DHT22;10883;51.946;20.140;2023-03-11T10:00:04;3.60;99.90
21445;DHT22;10883;51.946;20.140;2023-03-11T10:02:31;3.60;99.90
21445;DHT22;10883;51.946;20.140;2023-03-11T10:05:27;3.50;99.90
21445;DHT22;10883;51.946;20.140;2023-03-11T10:08:03;3.50;99.90
21445;DHT22;10883;51.946;20.140;2023-03-11T10:10:33;3.70;99.90
21445;DHT22;10883;51.946;20.140;2023-03-11T10:21:34;3.20;99.90
21445;DHT22;10883;51.946;20.140;2023-03-11T10:24:18;3.20;99.90
21445;DHT22;10883;51.946;20.140;2023-03-11T10:26:53;3.10;99.90
21445;DHT22;10883;51.946;20.140;2023-03-11T10:29:48;3.10;99.90
21445;DHT22;10883;51.946;20.140;2023-03-11T10:32:19;2.90;99.90
21445;DHT22;10883;51.946;20.140;2023-03-11T10:35:03;3.00;99.90
21445;DHT22;10883;51.946;20.140;2023-03-11T10:37:34;2.90;99.90
21445;DHT22;10883;51.946;20.140;2023-03-11T10:40:25;2.90;99.90
21445;DHT22;10883;51.946;20.140;2023-03-11T10:42:54;2.90;99.90
21445;DHT22;10883;51.946;20.140;2023-03-11T10:45:21;2.80;99.90
21445;DHT22;10883;51.946;20.140;2023-03-11T10:47:48;2.80;99.90
21445;DHT22;10883;51.946;20.140;2023-03-11T10:50:18;2.80;99.90
21445;DHT22;10883;51.946;20.140;2023-03-11T10:53:08;2.80;99.90
21445;DHT22;10883;51.946;20.140;2023-03-11T10:55:54;2.90;99.90
21445;DHT22;10883;51.946;20.140;2023-03-11T10:58:23;3.10;99.90
21445;DHT22;10883;51.946;20.140;2023-03-11T11:01:16;3.20;99.90
21445;DHT22;10883;51.946;20.140;2023-03-11T11:03:46;3.20;99.90
21445;DHT22;10883;51.946;20.140;2023-03-11T11:06:34;3.20;99.90
21445;DHT22;10883;51.946;20.140;2023-03-11T11:09:15;3.10;99.90
21445;DHT22;10883;51.946;20.140;2023-03-11T11:11:59;3.00;99.90
21445;DHT22;10883;51.946;20.140;2023-03-11T11:14:40;3.00;99.90
21445;DHT22;10883;51.946;20.140;2023-03-11T11:17:17;3.10;99.90
21445;DHT22;10883;51.946;20.140;2023-03-11T11:19:45;3.20;99.90
21445;DHT22;10883;51.946;20.140;2023-03-11T11:22:16;3.30;99.90
21445;DHT22;10883;51.946;20.140;2023-03-11T11:24:48;3.20;99.90
21445;DHT22;10883;51.946;20.140;2023-03-11T11:27:24;3.20;99.90
21445;DHT22;10883;51.946;20.140;2023-03-11T11:32:39;2.90;99.90
21445;DHT22;10883;51.946;20.140;2023-03-11T11:37:39;2.90;99.90
21445;DHT22;10883;51.946;20.140;2023-03-11T11:43:05;3.10;99.90
21445;DHT22;10883;51.946;20.140;2023-03-11T11:45:38;3.20;99.90
21445;DHT22;10883;51.946;20.140;2023-03-11T11:48:17;3.20;99.90
21445;DHT22;10883;51.946;20.140;2023-03-11T11:50:50;3.00;99.90
21445;DHT22;10883;51.946;20.140;2023-03-11T11:53:36;2.80;99.90
21445;DHT22;10883;51.946;20.140;2023-03-11T11:56:04;2.70;99.90
21445;DHT22;10883;51.946;20.140;2023-03-11T11:58:30;2.60;99.90
21445;DHT22;10883;51.946;20.140;2023-03-11T12:01:15;2.50;99.90
21445;DHT22;10883;51.946;20.140;2023-03-11T12:06:39;2.40;99.90
21445;DHT22;10883;51.946;20.140;2023-03-11T12:17:12;2.10;99.90
21445;DHT22;10883;51.946;20.140;2023-03-11T12:27:44;2.20;99.90
21445;DHT22;10883;51.946;20.140;2023-03-11T12:30:28;2.20;99.90
21445;DHT22;10883;51.946;20.140;2023-03-11T12:33:06;2.40;99.90
21445;DHT22;10883;51.946;20.140;2023-03-11T12:35:36;2.30;99.90
21445;DHT22;10883;51.946;20.140;2023-03-11T12:40:49;2.00;99.90
21445;DHT22;10883;51.946;20.140;2023-03-11T12:43:27;1.90;99.90
21445;DHT22;10883;51.946;20.140;2023-03-11T12:46:14;1.80;99.90
21445;DHT22;10883;51.946;20.140;2023-03-11T12:48:44;1.80;99.90
21445;DHT22;10883;51.946;20.140;2023-03-11T12:53:52;1.90;99.90
21445;DHT22;10883;51.946;20.140;2023-03-11T12:57:02;1.90;99.90
21445;DHT22;10883;51.946;20.140;2023-03-11T13:08:17;2.20;99.90
21445;DHT22;10883;51.946;20.140;2023-03-11T13:10:51;2.20;99.90
21445;DHT22;10883;51.946;20.140;2023-03-11T13:15:53;2.10;99.90
21445;DHT22;10883;51.946;20.140;2023-03-11T13:18:29;2.20;99.90
21445;DHT22;10883;51.946;20.140;2023-03-11T13:21:01;2.20;99.90
21445;DHT22;10883;51.946;20.140;2023-03-11T13:26:20;2.00;99.90
21445;DHT22;10883;51.946;20.140;2023-03-11T13:34:17;1.70;99.90
21445;DHT22;10883;51.946;20.140;2023-03-11T13:37:15;1.60;99.90
21445;DHT22;10883;51.946;20.140;2023-03-11T13:44:56;1.50;99.90
21445;DHT22;10883;51.946;20.140;2023-03-11T13:47:22;1.60;99.90
21445;DHT22;10883;51.946;20.140;2023-03-11T13:49:51;1.50;99.90
21445;DHT22;10883;51.946;20.140;2023-03-11T13:52:25;1.50;99.90
21445;DHT22;10883;51.946;20.140;2023-03-11T13:57:36;1.60;99.90
21445;DHT22;10883;51.946;20.140;2023-03-11T14:00:13;1.60;99.90
21445;DHT22;10883;51.946;20.140;2023-03-11T14:02:46;1.80;99.90
21445;DHT22;10883;51.946;20.140;2023-03-11T14:05:21;1.90;99.90
21445;DHT22;10883;51.946;20.140;2023-03-11T14:07:47;2.10;99.90
21445;DHT22;10883;51.946;20.140;2023-03-11T14:10:28;2.10;99.90
21445;DHT22;10883;51.946;20.140;2023-03-11T14:13:15;2.10;99.90
21445;DHT22;10883;51.946;20.140;2023-03-11T14:15:56;2.10;99.90
21445;DHT22;10883;51.946;20.140;2023-03-11T14:18:35;2.00;99.90
21445;DHT22;10883;51.946;20.140;2023-03-11T14:21:03;1.90;99.90
21445;DHT22;10883;51.946;20.140;2023-03-11T14:23:38;1.80;99.90
21445;DHT22;10883;51.946;20.140;2023-03-11T14:29:07;2.00;99.90
21445;DHT22;10883;51.946;20.140;2023-03-11T14:31:40;2.30;99.90
21445;DHT22;10883;51.946;20.140;2023-03-11T14:34:25;2.40;99.90
21445;DHT22;10883;51.946;20.140;2023-03-11T14:36:58;2.40;99.90
21445;DHT22;10883;51.946;20.140;2023-03-11T14:42:23;2.30;99.90
21445;DHT22;10883;51.946;20.140;2023-03-11T14:45:09;2.20;99.90
21445;DHT22;10883;51.946;20.140;2023-03-11T14:50:25;2.10;99.90
21445;DHT22;10883;51.946;20.140;2023-03-11T14:55:43;2.10;99.90
21445;DHT22;10883;51.946;20.140;2023-03-11T14:58:15;2.10;99.90
21445;DHT22;10883;51.946;20.140;2023-03-11T15:00:49;2.10;99.90
21445;DHT22;10883;51.946;20.140;2023-03-11T15:03:28;2.00;99.90
21445;DHT22;10883;51.946;20.140;2023-03-11T15:08:36;1.90;99.90
21445;DHT22;10883;51.946;20.140;2023-03-11T15:13:37;1.80;99.90
21445;DHT22;10883;51.946;20.140;2023-03-11T15:16:06;1.80;99.90
21445;DHT22;10883;51.946;20.140;2023-03-11T15:18:34;1.70;99.90
21445;DHT22;10883;51.946;20.140;2023-03-11T15:23:27;1.60;99.90
21445;DHT22;10883;51.946;20.140;2023-03-11T15:25:53;1.60;99.90
21445;DHT22;10883;51.946;20.140;2023-03-11T15:28:20;1.60;99.90
21445;DHT22;10883;51.946;20.140;2023-03-11T15:30:46;1.50;99.90
21445;DHT22;10883;51.946;20.140;2023-03-11T15:33:28;1.50;99.90
21445;DHT22;10883;51.946;20.140;2023-03-11T15:35:55;1.40;99.90
21445;DHT22;10883;51.946;20.140;2023-03-11T15:38:23;1.40;99.90
21445;DHT22;10883;51.946;20.140;2023-03-11T15:41:00;1.40;99.90
21445;DHT22;10883;51.946;20.140;2023-03-11T15:43:43;1.40;99.90
21445;DHT22;10883;51.946;20.140;2023-03-11T15:46:09;1.30;99.90
21445;DHT22;10883;51.946;20.140;2023-03-11T15:48:35;1.30;99.90
21445;DHT22;10883;51.946;20.140;2023-03-11T15:51:01;1.30;99.90
21445;DHT22;10883;51.946;20.140;2023-03-11T15:53:28;1.30;99.90
21445;DHT22;10883;51.946;20.140;2023-03-11T15:55:57;1.30;99.90
21445;DHT22;10883;51.946;20.140;2023-03-11T15:58:25;1.20;99.90
21445;DHT22;10883;51.946;20.140;2023-03-11T16:00:56;1.10;99.90
21445;DHT22;10883;51.946;20.140;2023-03-11T16:03:23;1.00;99.90
21445;DHT22;10883;51.946;20.140;2023-03-11T16:05:49;1.00;99.90
21445;DHT22;10883;51.946;20.140;2023-03-11T16:08:15;1.10;99.90
21445;DHT22;10883;51.946;20.140;2023-03-11T16:10:41;1.30;99.90
21445;DHT22;10883;51.946;20.140;2023-03-11T16:13:14;1.40;99.90
21445;DHT22;10883;51.946;20.140;2023-03-11T16:15:40;1.50;99.90
21445;DHT22;10883;51.946;20.140;2023-03-11T16:18:07;1.50;99.90
21445;DHT22;10883;51.946;20.140;2023-03-11T16:20:43;1.60;99.90
21445;DHT22;10883;51.946;20.140;2023-03-11T16:23:19;1.50;99.90
21445;DHT22;10883;51.946;20.140;2023-03-11T16:25:45;1.40;99.90
21445;DHT22;10883;51.946;20.140;2023-03-11T16:28:13;1.30;99.90
21445;DHT22;10883;51.946;20.140;2023-03-11T16:30:39;1.30;99.90
21445;DHT22;10883;51.946;20.140;2023-03-11T16:33:05;1.20;99.90
21445;DHT22;10883;51.946;20.140;2023-03-11T16:35:31;1.20;99.90
21445;DHT22;10883;51.946;20.140;2023-03-11T16:37:57;1.10;99.90
21445;DHT22;10883;51.946;20.140;2023-03-11T16:40:25;1.10;99.90
21445;DHT22;10883;51.946;20.140;2023-03-11T16:43:06;1.10;99.90
21445;DHT22;10883;51.946;20.140;2023-03-11T16:45:32;1.10;99.90
21445;DHT22;10883;51.946;20.140;2023-03-11T16:47:58;1.00;99.90
21445;DHT22;10883;51.946;20.140;2023-03-11T16:50:24;1.00;99.90
21445;DHT22;10883;51.946;20.140;2023-03-11T16:52:54;1.00;99.90
21445;DHT22;10883;51.946;20.140;2023-03-11T16:55:21;1.00;99.90
21445;DHT22;10883;51.946;20.140;2023-03-11T16:57:47;1.10;99.90
21445;DHT22;10883;51.946;20.140;2023-03-11T17:00:14;1.10;99.90
21445;DHT22;10883;51.946;20.140;2023-03-11T17:02:40;1.10;99.90
21445;DHT22;10883;51.946;20.140;2023-03-11T17:05:06;1.10;99.90
21445;DHT22;10883;51.946;20.140;2023-03-11T17:07:32;1.10;99.90
21445;DHT22;10883;51.946;20.140;2023-03-11T17:09:59;1.20;99.90
21445;DHT22;10883;51.946;20.140;2023-03-11T17:12:25;1.20;99.90
21445;DHT22;10883;51.946;20.140;2023-03-11T17:14:52;1.20;99.90
21445;DHT22;10883;51.946;20.140;2023-03-11T17:17:19;1.30;99.90
21445;DHT22;10883;51.946;20.140;2023-03-11T17:19:45;1.30;99.90
21445;DHT22;10883;51.946;20.140;2023-03-11T17:22:11;1.30;99.90
21445;DHT22;10883;51.946;20.140;2023-03-11T17:24:37;1.30;99.90
21445;DHT22;10883;51.946;20.140;2023-03-11T17:27:03;1.30;99.90
21445;DHT22;10883;51.946;20.140;2023-03-11T17:29:29;1.30;99.90
21445;DHT22;10883;51.946;20.140;2023-03-11T17:31:55;1.30;99.90
21445;DHT22;10883;51.946;20.140;2023-03-11T17:34:22;1.40;99.90
21445;DHT22;10883;51.946;20.140;2023-03-11T17:36:48;1.30;99.90
21445;DHT22;10883;51.946;20.140;2023-03-11T17:39:14;1.30;99.90
21445;DHT22;10883;51.946;20.140;2023-03-11T17:41:39;1.30;99.90
21445;DHT22;10883;51.946;20.140;2023-03-11T17:44:05;1.30;99.90
21445;DHT22;10883;51.946;20.140;2023-03-11T17:46:31;1.20;99.90
21445;DHT22;10883;51.946;20.140;2023-03-11T17:48:57;1.20;99.90